Time;durP1;ratioP1;P1;durP2;ratioP2;P2;SDS_P1;SDS_P2;PMS_P1;PMS_P2;Temp;Humidity;BMP_temperature;BMP_pressure;BME280_temperature;BME280_humidity;BME280_pressure;Samples;Min_cycle;Max_cycle;Signal;HPM_P1;HPM_P2
2023/12/31 00:01:06;;;;;;;6.68;1.77;;;6.20;99.90;;;7.54;100.00;100109.72;5073545;28;20120;-80
2023/12/31 00:03:32;;;;;;;4.35;1.45;;;6.20;99.90;;;7.45;100.00;100106.38;5067410;28;20123;-81
2023/12/31 00:05:58;;;;;;;5.90;1.85;;;6.10;99.90;;;7.35;100.00;100089.69;5068537;28;20032;-80
2023/12/31 00:08:24;;;;;;;5.20;1.88;;;6.00;99.90;;;7.16;100.00;100085.91;5068433;28;20504;-80
2023/12/31 00:10:50;;;;;;;4.40;2.10;;;5.90;99.90;;;7.17;100.00;100082.19;5067942;28;20037;-80
2023/12/31 00:13:17;;;;;;;7.10;1.75;;;5.80;99.90;;;7.33;100.00;100089.06;5065403;28;20045;-79
2023/12/31 00:15:43;;;;;;;4.75;1.90;;;5.80;99.90;;;7.33;100.00;100087.16;5064763;28;20082;-81
2023/12/31 00:18:09;;;;;;;5.78;1.50;;;5.70;99.90;;;7.44;100.00;100076.75;5067453;28;20042;-80
2023/12/31 00:20:35;;;;;;;5.82;1.85;;;5.60;99.90;;;7.49;100.00;100079.66;5068487;28;20036;-81
2023/12/31 00:23:01;;;;;;;6.75;1.73;;;5.40;99.90;;;7.24;100.00;100057.72;5070895;28;20052;-80
2023/12/31 00:25:26;;;;;;;6.65;1.83;;;5.20;99.90;;;7.02;100.00;100077.78;5067823;28;20042;-79
2023/12/31 00:27:52;;;;;;;6.10;1.52;;;5.10;99.90;;;7.02;100.00;100066.91;5066135;28;20043;-80
2023/12/31 00:30:18;;;;;;;11.10;2.20;;;5.10;99.90;;;7.02;100.00;100061.50;5071219;28;20037;-80
2023/12/31 00:32:44;;;;;;;5.25;1.90;;;5.10;99.90;;;6.98;100.00;100064.81;5064370;28;20048;-80
2023/12/31 00:35:09;;;;;;;7.65;2.00;;;5.20;99.90;;;6.86;100.00;100048.31;5072552;28;20036;-79
2023/12/31 00:37:35;;;;;;;9.43;2.40;;;5.30;99.90;;;6.99;100.00;100047.50;5067944;28;20419;-80
2023/12/31 00:40:01;;;;;;;9.13;2.13;;;5.40;99.90;;;7.10;100.00;100048.75;5067101;28;20040;-80
2023/12/31 00:42:27;;;;;;;10.02;2.30;;;5.50;99.90;;;7.23;100.00;100059.63;5068686;28;20040;-80
2023/12/31 00:44:52;;;;;;;5.35;1.92;;;5.60;99.90;;;7.45;100.00;100053.97;5065773;28;20024;-80
2023/12/31 00:47:19;;;;;;;5.30;1.63;;;5.70;99.90;;;7.63;100.00;100047.88;5065759;28;20126;-80
2023/12/31 00:49:45;;;;;;;5.82;1.67;;;5.70;99.90;;;7.57;100.00;100049.56;5082976;28;20507;-80
2023/12/31 00:52:11;;;;;;;4.43;2.10;;;5.70;99.90;;;7.69;100.00;100038.88;5065339;28;20033;-80
2023/12/31 00:54:38;;;;;;;5.82;1.55;;;5.70;99.90;;;7.61;100.00;100045.38;5065945;28;20024;-80
2023/12/31 00:57:03;;;;;;;4.95;1.70;;;5.70;99.90;;;7.60;100.00;100045.59;5067150;28;20029;-80
2023/12/31 00:59:30;;;;;;;8.13;1.75;;;5.80;99.90;;;7.38;100.00;100040.41;5068036;28;20504;-79
2023/12/31 01:01:56;;;;;;;5.35;1.67;;;5.90;99.90;;;7.44;100.00;100030.59;5066263;28;20063;-79
2023/12/31 01:04:21;;;;;;;6.30;1.70;;;5.90;99.90;;;7.42;100.00;100029.94;5066209;28;20043;-80
2023/12/31 01:06:47;;;;;;;4.82;1.77;;;5.90;99.90;;;7.36;100.00;100026.22;5067676;28;20491;-80
2023/12/31 01:09:13;;;;;;;4.90;1.70;;;5.90;99.90;;;7.34;100.00;100034.56;5048367;28;20127;-79
2023/12/31 01:11:40;;;;;;;8.98;1.98;;;5.80;99.90;;;7.13;100.00;100026.63;5066608;28;20107;-80
2023/12/31 01:14:05;;;;;;;6.70;2.30;;;5.70;99.90;;;6.96;100.00;100026.22;5061727;28;20029;-80
2023/12/31 01:16:31;;;;;;;7.15;2.08;;;5.60;99.90;;;6.91;100.00;100013.31;5060485;28;20059;-80
2023/12/31 01:18:57;;;;;;;8.00;1.67;;;5.60;99.90;;;7.23;100.00;100001.81;5080409;28;20058;-79
2023/12/31 01:21:23;;;;;;;5.80;1.80;;;5.60;99.90;;;7.39;100.00;100014.94;5063600;28;20037;-79
2023/12/31 01:23:48;;;;;;;8.60;1.80;;;5.60;99.90;;;7.29;100.00;100004.50;5080361;28;20036;-80
2023/12/31 01:26:14;;;;;;;10.18;2.33;;;5.60;99.90;;;7.12;100.00;99997.84;5064190;28;20036;-80
2023/12/31 01:28:40;;;;;;;6.93;1.98;;;5.60;99.90;;;7.32;100.00;99995.94;5062046;28;20538;-80
2023/12/31 01:31:05;;;;;;;4.13;1.70;;;5.60;99.90;;;7.51;100.00;100003.41;5064643;28;20040;-80
2023/12/31 01:33:34;;;;;;;5.45;1.65;;;5.70;99.90;;;7.31;100.00;99997.00;5060090;28;20037;-80
2023/12/31 01:36:00;;;;;;;6.85;2.00;;;5.60;99.90;;;7.20;100.00;99994.94;5081078;28;20043;-79
2023/12/31 01:38:25;;;;;;;6.38;1.80;;;5.70;99.90;;;6.91;100.00;99980.78;5062677;28;20037;-80
2023/12/31 01:40:55;;;;;;;6.22;2.00;;;5.60;99.90;;;6.83;100.00;99978.25;5067055;28;20050;-79
2023/12/31 01:43:22;;;;;;;4.97;1.73;;;5.70;99.90;;;7.23;100.00;99993.66;5065258;28;20468;-80
2023/12/31 01:45:49;;;;;;;7.68;1.98;;;5.70;99.90;;;7.33;100.00;99975.91;5081058;28;20047;-80
2023/12/31 01:48:17;;;;;;;5.10;1.90;;;5.70;99.90;;;7.34;100.00;99976.75;5055346;28;20037;-79
2023/12/31 01:50:43;;;;;;;6.05;1.92;;;5.60;99.90;;;7.20;100.00;99978.66;5063771;28;20056;-79
2023/12/31 01:53:12;;;;;;;7.43;1.92;;;5.40;99.90;;;7.13;100.00;99981.38;5056419;28;20036;-78
2023/12/31 01:55:38;;;;;;;6.25;1.95;;;5.30;99.90;;;7.03;100.00;99984.50;5050696;28;20404;-79
2023/12/31 01:58:04;;;;;;;7.65;1.80;;;5.10;99.90;;;6.85;100.00;99987.00;5066467;28;20041;-79
2023/12/31 02:00:30;;;;;;;5.53;1.88;;;5.00;99.90;;;6.74;100.00;99981.16;5067965;28;20067;-79
2023/12/31 02:02:59;;;;;;;6.97;1.95;;;4.80;99.90;;;6.76;100.00;99978.25;5051640;28;20557;-79
2023/12/31 02:05:25;;;;;;;5.13;1.70;;;4.70;99.90;;;6.68;100.00;99979.31;5071887;28;20056;-78
2023/12/31 02:07:51;;;;;;;5.28;1.90;;;4.60;99.90;;;6.64;100.00;99972.63;5051162;28;20083;-79
2023/12/31 02:10:17;;;;;;;5.13;1.90;;;4.40;99.90;;;6.56;100.00;99976.38;5055316;28;20049;-78
2023/12/31 02:12:43;;;;;;;7.68;1.98;;;4.30;99.90;;;6.13;100.00;99971.28;5036533;28;20094;-78
2023/12/31 02:15:09;;;;;;;5.38;1.95;;;4.20;99.90;;;6.12;100.00;99962.31;5049774;28;20477;-79
2023/12/31 02:17:36;;;;;;;4.35;1.65;;;4.10;99.90;;;5.72;100.00;99967.56;5050027;28;20544;-78
2023/12/31 02:20:03;;;;;;;8.02;1.90;;;4.10;99.90;;;5.80;100.00;99951.13;5051616;28;20094;-78
2023/12/31 02:22:30;;;;;;;6.78;2.17;;;4.10;99.90;;;5.59;100.00;99962.91;5049788;28;20037;-78
2023/12/31 02:25:05;;;;;;;7.57;2.28;;;4.20;99.90;;;5.53;100.00;99961.03;5054596;28;20065;-78
2023/12/31 02:27:31;;;;;;;6.45;2.00;;;4.30;99.90;;;5.61;100.00;99956.28;5057117;28;20072;-78
2023/12/31 02:30:02;;;;;;;7.90;2.58;;;4.30;99.90;;;5.71;100.00;99946.94;5058479;28;20477;-78
2023/12/31 02:32:28;;;;;;;4.32;2.35;;;4.30;99.90;;;5.80;100.00;99934.88;5053215;28;20047;-78
2023/12/31 02:34:54;;;;;;;6.63;2.28;;;4.30;99.90;;;6.16;100.00;99932.94;5057421;28;20028;-79
2023/12/31 02:37:19;;;;;;;7.00;2.20;;;4.40;99.90;;;6.19;100.00;99930.66;5049629;28;20392;-78
2023/12/31 02:39:45;;;;;;;12.27;2.47;;;4.40;99.90;;;6.36;100.00;99929.44;5066385;28;20107;-78
2023/12/31 02:42:11;;;;;;;4.88;2.40;;;4.50;99.90;;;6.43;100.00;99920.28;5067611;28;20037;-78
2023/12/31 02:44:36;;;;;;;8.15;1.88;;;4.50;99.90;;;6.54;100.00;99924.25;5070306;28;20480;-79
2023/12/31 02:47:02;;;;;;;7.75;2.38;;;4.60;99.90;;;6.54;100.00;99915.28;5057103;28;20040;-78
2023/12/31 02:49:28;;;;;;;7.32;2.63;;;4.60;99.90;;;6.55;100.00;99908.81;5063735;28;20507;-79
2023/12/31 02:51:54;;;;;;;5.03;1.83;;;4.60;99.90;;;6.64;100.00;99909.44;5053595;28;20031;-79
2023/12/31 02:54:19;;;;;;;5.30;1.80;;;4.70;99.90;;;6.72;100.00;99917.34;5053624;28;20492;-78
2023/12/31 02:56:45;;;;;;;5.60;2.00;;;4.70;99.90;;;6.69;100.00;99902.34;5059865;28;20481;-79
2023/12/31 02:59:11;;;;;;;8.23;1.90;;;4.70;99.90;;;6.74;100.00;99907.13;5036597;28;20067;-78
2023/12/31 03:01:37;;;;;;;7.30;2.08;;;4.80;99.90;;;6.80;100.00;99910.88;5060349;28;20069;-78
2023/12/31 03:04:03;;;;;;;6.28;1.70;;;4.80;99.90;;;6.79;100.00;99903.78;5057289;28;20119;-78
2023/12/31 03:06:30;;;;;;;6.10;1.83;;;4.80;99.90;;;6.62;100.00;99899.63;5053022;28;20618;-78
2023/12/31 03:08:58;;;;;;;6.40;2.20;;;4.70;99.90;;;6.22;100.00;99875.22;5053374;28;20025;-78
2023/12/31 03:11:25;;;;;;;6.00;1.85;;;4.90;99.90;;;6.33;100.00;99865.66;5054263;28;20372;-79
2023/12/31 03:13:51;;;;;;;8.25;2.63;;;5.10;99.90;;;6.44;100.00;99867.75;5053952;28;20060;-78
2023/12/31 03:16:17;;;;;;;7.03;2.53;;;5.20;99.90;;;6.53;100.00;99872.94;5062254;28;20049;-78
2023/12/31 03:18:42;;;;;;;6.28;2.05;;;5.40;99.90;;;6.68;100.00;99870.88;5056175;28;20029;-78
2023/12/31 03:21:15;;;;;;;6.43;2.03;;;5.50;99.90;;;6.87;100.00;99868.31;5052331;28;20044;-77
2023/12/31 03:23:41;;;;;;;7.35;2.40;;;5.60;99.90;;;6.81;100.00;99866.47;5065288;28;20057;-78
2023/12/31 03:26:07;;;;;;;5.80;2.17;;;5.60;99.90;;;6.83;100.00;99865.22;5062211;28;20106;-78
2023/12/31 03:28:32;;;;;;;5.43;1.88;;;5.60;99.90;;;6.65;100.00;99856.88;5053017;28;20033;-78
2023/12/31 03:30:58;;;;;;;5.60;1.80;;;5.50;99.90;;;6.53;100.00;99845.84;5082275;28;20050;-78
2023/12/31 03:33:24;;;;;;;11.70;2.22;;;5.40;99.90;;;6.38;100.00;99836.09;5052221;28;20468;-77
2023/12/31 03:35:50;;;;;;;7.57;2.10;;;5.40;99.90;;;6.48;100.00;99824.78;5057093;28;20037;-78
2023/12/31 03:38:16;;;;;;;5.47;1.90;;;5.30;99.90;;;6.62;100.00;99831.88;5056112;28;20041;-78
2023/12/31 03:40:42;;;;;;;5.88;1.90;;;5.30;99.90;;;6.47;100.00;99809.56;5055671;28;20064;-78
2023/12/31 03:43:08;;;;;;;6.70;2.17;;;5.40;99.90;;;6.80;100.00;99826.84;5053136;28;20485;-78
2023/12/31 03:45:33;;;;;;;3.95;1.95;;;5.60;99.90;;;7.03;100.00;99826.38;5059784;28;20036;-78
2023/12/31 03:47:59;;;;;;;5.72;1.92;;;5.80;99.90;;;7.12;100.00;99818.81;5054122;28;20040;-78
2023/12/31 03:50:25;;;;;;;7.10;2.15;;;5.90;99.90;;;7.21;100.00;99817.53;5069792;28;20044;-78
2023/12/31 03:52:50;;;;;;;4.28;1.80;;;6.00;99.90;;;7.19;100.00;99815.03;5054544;28;20109;-78
2023/12/31 03:55:17;;;;;;;7.40;2.30;;;6.10;99.90;;;7.16;100.00;99812.75;5053510;28;20029;-79
2023/12/31 03:57:42;;;;;;;6.03;1.88;;;6.10;99.90;;;7.43;100.00;99804.50;5068869;28;20044;-78
2023/12/31 04:00:09;;;;;;;5.57;1.80;;;6.20;99.90;;;7.57;100.00;99807.97;5053118;28;20071;-78
2023/12/31 04:02:35;;;;;;;7.07;2.08;;;6.30;99.90;;;7.61;100.00;99808.38;5052961;28;20036;-78
2023/12/31 04:05:03;;;;;;;4.43;1.77;;;6.40;99.90;;;7.73;100.00;99803.09;5056261;28;20510;-78
2023/12/31 04:07:28;;;;;;;6.53;1.92;;;6.50;99.90;;;7.84;100.00;99791.50;5063558;28;20045;-79
2023/12/31 04:09:54;;;;;;;6.93;1.60;;;6.70;99.90;;;7.90;100.00;99793.34;5061381;28;20033;-78
2023/12/31 04:12:21;;;;;;;3.00;1.48;;;6.70;99.90;;;7.80;100.00;99768.56;5045706;28;20078;-78
2023/12/31 04:14:46;;;;;;;5.72;1.67;;;6.80;99.90;;;7.76;100.00;99770.06;5052448;28;20097;-78
2023/12/31 04:17:12;;;;;;;6.97;1.92;;;6.80;99.90;;;7.85;100.00;99762.47;5035710;28;20037;-78
2023/12/31 04:19:38;;;;;;;5.95;1.90;;;6.80;99.90;;;7.71;100.00;99751.69;5056585;28;20040;-78
2023/12/31 04:22:04;;;;;;;5.30;2.03;;;6.70;99.90;;;7.50;100.00;99747.47;5055507;28;20033;-78
2023/12/31 04:24:30;;;;;;;5.85;2.00;;;6.60;99.90;;;7.30;100.00;99742.97;5059466;28;20446;-78
2023/12/31 04:26:57;;;;;;;6.00;2.10;;;6.50;99.90;;;7.31;100.00;99731.06;5057824;28;20036;-78
2023/12/31 04:29:26;;;;;;;;;;;6.40;99.90;;;7.25;100.00;99736.53;5059588;28;20478;-79
2023/12/31 04:31:51;;;;;;;7.88;2.05;;;6.30;99.90;;;7.23;100.00;99722.34;5053159;28;20306;-79
2023/12/31 04:34:17;;;;;;;5.20;1.90;;;6.20;99.90;;;7.30;100.00;99721.28;5067819;28;20086;-79
2023/12/31 04:36:44;;;;;;;5.80;1.83;;;6.30;99.90;;;7.30;100.00;99710.41;5056966;28;20089;-79
2023/12/31 04:39:11;;;;;;;5.97;1.93;;;6.30;99.90;;;7.30;100.00;99702.28;5056663;28;20035;-78
2023/12/31 04:41:37;;;;;;;4.57;1.80;;;6.30;99.90;;;7.39;100.00;99699.28;5052835;28;20048;-78
2023/12/31 04:44:03;;;;;;;5.85;1.88;;;6.30;99.90;;;7.58;100.00;99703.75;5052342;28;20033;-78
2023/12/31 04:46:29;;;;;;;4.03;1.63;;;6.40;99.90;;;7.57;100.00;99696.66;5052266;28;20029;-79
2023/12/31 04:48:54;;;;;;;5.28;2.10;;;6.30;99.90;;;7.54;100.00;99697.13;5051995;28;20489;-79
2023/12/31 04:51:29;;;;;;;4.57;1.73;;;6.30;99.90;;;7.61;100.00;99703.31;5056979;28;20036;-78
2023/12/31 04:53:56;;;;;;;6.18;2.28;;;6.30;99.90;;;7.49;100.00;99705.09;5050910;28;20033;-79
2023/12/31 04:56:26;;;;;;;7.63;2.30;;;6.30;99.90;;;7.53;100.00;99698.16;5057138;28;20036;-79
2023/12/31 04:58:55;;;;;;;7.13;2.20;;;6.30;99.90;;;7.54;100.00;99691.69;5051295;28;20028;-78
2023/12/31 05:01:22;;;;;;;4.97;2.30;;;6.30;99.90;;;7.58;100.00;99692.91;5055211;28;20048;-79
2023/12/31 05:03:51;;;;;;;4.82;1.73;;;6.30;99.90;;;7.49;100.00;99694.22;5054109;28;20436;-79
2023/12/31 05:06:16;;;;;;;7.00;1.95;;;6.30;99.90;;;7.53;100.00;99700.03;5050888;28;20393;-79
2023/12/31 05:08:45;;;;;;;5.43;1.88;;;6.40;99.90;;;7.65;100.00;99684.72;5052016;28;20033;-79
2023/12/31 05:11:13;;;;;;;10.02;1.75;;;6.40;99.90;;;7.71;100.00;99686.53;5057139;28;20510;-79
2023/12/31 05:13:40;;;;;;;5.43;1.40;;;6.50;99.90;;;7.63;100.00;99684.09;5051530;28;20033;-79
2023/12/31 05:16:08;;;;;;;4.13;1.50;;;6.50;99.90;;;7.67;100.00;99673.63;5061164;28;20056;-79
2023/12/31 05:18:34;;;;;;;4.97;1.70;;;6.60;99.90;;;7.66;100.00;99683.66;5051860;28;20037;-78
2023/12/31 05:21:01;;;;;;;6.35;1.58;;;6.60;99.90;;;7.81;100.00;99679.78;5034827;28;20029;-78
2023/12/31 05:23:27;;;;;;;4.65;1.67;;;6.60;99.90;;;7.77;100.00;99666.63;5051744;28;20048;-78
2023/12/31 05:25:53;;;;;;;3.22;1.33;;;6.50;99.90;;;7.71;100.00;99669.44;5064188;28;20388;-78
2023/12/31 05:28:19;;;;;;;4.00;1.50;;;6.60;99.90;;;7.65;100.00;99665.72;5050259;28;20047;-78
2023/12/31 05:30:45;;;;;;;3.28;1.58;;;6.50;99.90;;;7.61;100.00;99659.88;5050643;28;20465;-78
2023/12/31 05:33:11;;;;;;;5.30;1.40;;;6.50;99.90;;;7.54;100.00;99667.25;5051414;28;20123;-78
2023/12/31 05:35:36;;;;;;;5.13;1.70;;;6.50;99.90;;;7.43;100.00;99657.94;5051588;28;20929;-78
2023/12/31 05:38:02;;;;;;;5.05;1.70;;;6.50;99.90;;;7.43;100.00;99665.28;5051630;28;20056;-78
2023/12/31 05:40:28;;;;;;;3.97;1.40;;;6.40;99.90;;;7.32;100.00;99645.91;5066851;28;20048;-78
2023/12/31 05:42:54;;;;;;;5.22;2.13;;;6.40;99.90;;;7.34;100.00;99653.84;5051201;28;20388;-78
2023/12/31 05:45:20;;;;;;;4.85;1.80;;;6.30;99.90;;;7.28;100.00;99638.41;5062444;28;20082;-78
2023/12/31 05:47:49;;;;;;;6.93;1.90;;;6.30;99.90;;;7.46;100.00;99627.66;5051289;28;20123;-77
2023/12/31 05:50:15;;;;;;;3.92;1.70;;;6.40;99.90;;;7.39;100.00;99612.47;5051357;28;20447;-78
2023/12/31 05:52:41;;;;;;;3.35;1.50;;;6.40;99.90;;;7.35;100.00;99625.66;5069902;28;20037;-77
2023/12/31 05:55:07;;;;;;;5.85;1.80;;;6.40;99.90;;;7.34;100.00;99637.56;5058765;28;20046;-77
2023/12/31 05:57:33;;;;;;;4.82;1.40;;;6.30;99.90;;;7.33;100.00;99625.88;5051192;28;20037;-78
2023/12/31 06:00:05;;;;;;;4.13;1.50;;;6.30;99.90;;;7.36;100.00;99615.63;5051788;28;20377;-78
2023/12/31 06:02:38;;;;;;;3.58;1.55;;;6.30;99.90;;;7.41;100.00;99610.34;5069610;28;20055;-78
2023/12/31 06:05:04;;;;;;;4.82;1.50;;;6.30;99.90;;;7.34;100.00;99611.25;5050785;28;20037;-80
2023/12/31 06:07:30;;;;;;;4.28;1.42;;;6.40;99.90;;;7.54;100.00;99610.25;5049446;28;20104;-79
2023/12/31 06:09:56;;;;;;;4.95;1.50;;;6.40;99.90;;;7.52;100.00;99597.94;5050826;28;20539;-79
2023/12/31 06:12:22;;;;;;;5.18;1.50;;;6.50;99.90;;;7.45;100.00;99598.03;5051184;28;20048;-79
2023/12/31 06:14:47;;;;;;;2.75;1.50;;;6.50;99.90;;;7.63;100.00;99594.53;5054325;28;20037;-78
2023/12/31 06:17:13;;;;;;;4.03;1.40;;;6.60;99.90;;;7.51;100.00;99578.13;5069320;28;20037;-78
2023/12/31 06:19:40;;;;;;;3.83;1.45;;;6.50;99.90;;;7.32;100.00;99572.66;5056944;28;20037;-78
2023/12/31 06:22:06;;;;;;;3.03;1.58;;;6.40;99.90;;;7.53;100.00;99584.16;5053870;28;20037;-78
2023/12/31 06:24:32;;;;;;;2.65;1.40;;;6.50;99.90;;;7.45;100.00;99582.56;5061753;28;20057;-78
2023/12/31 06:26:57;;;;;;;5.45;1.35;;;6.50;99.90;;;7.32;100.00;99569.94;5054365;28;20110;-79
2023/12/31 06:29:23;;;;;;;2.95;1.40;;;6.30;99.90;;;7.44;100.00;99578.19;5062007;28;20037;-78
2023/12/31 06:31:49;;;;;;;3.53;1.50;;;6.30;99.90;;;7.70;100.00;99589.03;5059317;28;20433;-78
2023/12/31 06:34:15;;;;;;;4.07;1.60;;;6.40;99.90;;;7.62;100.00;99563.00;5037912;28;20059;-78
2023/12/31 06:36:40;;;;;;;3.03;1.50;;;6.50;99.90;;;7.61;100.00;99574.91;5054937;28;20480;-78
2023/12/31 06:39:10;;;;;;;4.07;1.45;;;6.50;99.90;;;7.57;100.00;99574.53;5053729;28;20040;-80
2023/12/31 06:41:36;;;;;;;3.13;1.40;;;6.40;99.90;;;7.56;100.00;99572.88;5054309;28;20094;-78
2023/12/31 06:44:02;;;;;;;3.05;1.23;;;6.40;99.90;;;7.66;100.00;99574.22;5054526;28;20049;-79
2023/12/31 06:46:27;;;;;;;4.10;1.40;;;6.50;99.90;;;7.96;100.00;99555.34;5057670;28;20082;-79
2023/12/31 06:48:55;;;;;;;2.85;1.23;;;6.70;99.90;;;8.37;100.00;99561.13;5057898;28;20036;-79
2023/12/31 06:51:20;;;;;;;4.32;1.23;;;7.00;99.90;;;8.59;100.00;99575.06;5059249;28;20040;-79
2023/12/31 06:53:46;;;;;;;2.22;1.00;;;7.30;99.90;;;8.63;100.00;99551.81;5054655;28;20058;-79
2023/12/31 06:56:12;;;;;;;4.82;1.20;;;7.40;99.90;;;8.65;100.00;99548.84;5072688;28;20040;-79
2023/12/31 06:58:38;;;;;;;3.28;1.42;;;7.50;99.90;;;8.74;100.00;99552.88;5049661;28;20554;-79
2023/12/31 07:01:05;;;;;;;4.10;1.60;;;7.50;99.90;;;8.80;100.00;99547.59;5054886;28;20198;-79
2023/12/31 07:03:31;;;;;;;2.70;1.23;;;7.50;99.90;;;8.65;100.00;99535.25;5076672;28;20135;-78
2023/12/31 07:05:57;;;;;;;3.50;1.42;;;7.50;99.90;;;8.83;100.00;99547.13;5073478;28;20041;-79
2023/12/31 07:08:23;;;;;;;2.95;1.20;;;7.60;99.90;;;8.78;100.00;99536.94;5076433;28;20111;-80
2023/12/31 07:10:53;;;;;;;3.83;1.42;;;7.60;99.90;;;8.59;100.00;99531.56;5079846;28;20448;-81
2023/12/31 07:13:20;;;;;;;2.55;1.13;;;7.50;99.90;;;8.54;100.00;99545.03;5076119;28;20169;-79
2023/12/31 07:15:46;;;;;;;3.20;1.10;;;7.50;99.90;;;8.52;100.00;99528.13;5076155;28;20111;-81
2023/12/31 07:18:12;;;;;;;5.93;2.05;;;7.40;99.90;;;8.49;100.00;99518.56;5058730;28;20048;-80
2023/12/31 07:20:38;;;;;;;2.88;1.08;;;7.50;99.90;;;8.53;100.00;99515.38;5078474;28;20024;-80
2023/12/31 07:23:04;;;;;;;3.10;1.45;;;7.40;99.90;;;8.55;100.00;99527.66;5073954;28;20041;-80
2023/12/31 07:25:32;;;;;;;2.88;1.27;;;7.40;99.90;;;8.45;100.00;99522.72;5077709;28;20084;-79
2023/12/31 07:27:58;;;;;;;2.55;1.10;;;7.40;99.90;;;8.38;100.00;99516.56;5072798;28;20535;-79
2023/12/31 07:30:25;;;;;;;3.25;1.30;;;7.40;99.90;;;8.39;100.00;99523.66;5077645;28;20036;-80
2023/12/31 07:32:52;;;;;;;4.15;1.30;;;7.30;99.90;;;8.35;100.00;99511.59;5073573;28;20039;-79
2023/12/31 07:35:17;;;;;;;2.22;1.15;;;7.30;99.90;;;8.31;100.00;99522.09;5071218;28;20149;-79
2023/12/31 07:37:43;;;;;;;3.40;1.40;;;7.30;99.90;;;8.37;100.00;99520.34;5072022;28;20048;-81
2023/12/31 07:40:10;;;;;;;3.53;1.40;;;7.20;99.90;;;8.32;100.00;99506.63;5063969;28;20028;-79
2023/12/31 07:42:37;;;;;;;3.15;1.40;;;7.20;99.90;;;8.31;100.00;99513.13;5053695;28;20041;-80
2023/12/31 07:45:05;;;;;;;2.87;1.27;;;7.30;99.90;;;8.03;100.00;99506.38;5060083;28;20052;-79
2023/12/31 07:47:31;;;;;;;3.05;1.20;;;7.20;99.90;;;8.32;100.00;99502.00;5069023;28;20777;-80
2023/12/31 07:49:57;;;;;;;2.47;1.25;;;7.20;99.90;;;8.34;100.00;99502.59;5052737;28;20389;-78
2023/12/31 07:52:25;;;;;;;3.80;1.30;;;7.30;99.90;;;8.42;100.00;99498.72;5080501;28;20033;-79
2023/12/31 07:54:51;;;;;;;2.85;1.00;;;7.30;99.90;;;8.41;100.00;99488.91;5059635;28;20090;-80
2023/12/31 07:57:17;;;;;;;2.60;1.20;;;7.30;99.90;;;8.35;100.00;99498.00;5078878;28;20119;-79
2023/12/31 07:59:43;;;;;;;2.45;1.20;;;7.40;99.90;;;8.53;100.00;99502.59;5077620;28;20472;-79
2023/12/31 08:02:09;;;;;;;2.60;1.15;;;7.40;99.90;;;8.53;100.00;99497.16;5073800;28;20040;-79
2023/12/31 08:04:35;;;;;;;4.68;1.33;;;7.40;99.90;;;8.52;100.00;99490.06;5057581;28;20032;-81
2023/12/31 08:07:01;;;;;;;3.35;1.40;;;7.40;99.90;;;8.54;100.00;99478.97;5052164;28;20055;-79
2023/12/31 08:09:26;;;;;;;5.25;1.48;;;7.40;99.90;;;8.59;100.00;99489.97;5056052;28;20040;-79
2023/12/31 08:11:52;;;;;;;3.67;1.00;;;7.40;99.90;;;8.67;100.00;99484.19;5059436;28;20036;-81
2023/12/31 08:14:18;;;;;;;2.40;1.08;;;7.50;99.90;;;8.63;100.00;99475.69;5061084;28;20036;-80
2023/12/31 08:16:43;;;;;;;2.38;1.15;;;7.50;99.90;;;8.72;100.00;99478.88;5060499;28;20084;-81
2023/12/31 08:19:09;;;;;;;3.85;1.20;;;7.50;99.90;;;8.88;100.00;99485.53;5058268;28;20033;-83
2023/12/31 08:21:35;;;;;;;3.47;1.45;;;7.80;99.90;;;8.84;100.00;99469.94;5065043;28;20044;-82
2023/12/31 08:24:00;;;;;;;2.83;1.25;;;7.80;99.90;;;8.85;100.00;99477.03;5067261;28;20041;-80
2023/12/31 08:26:26;;;;;;;3.05;1.30;;;7.80;99.90;;;8.93;100.00;99465.78;5070114;28;20036;-82
2023/12/31 08:28:52;;;;;;;2.03;1.10;;;7.90;99.90;;;9.02;100.00;99467.13;5065016;28;20078;-83
2023/12/31 08:31:17;;;;;;;4.28;1.42;;;8.00;99.90;;;9.13;100.00;99476.31;5071141;28;20049;-82
2023/12/31 08:33:44;;;;;;;3.65;1.40;;;8.00;99.90;;;9.10;100.00;99468.63;5063868;28;20036;-82
2023/12/31 08:36:09;;;;;;;4.68;1.65;;;8.00;99.90;;;9.04;100.00;99454.09;5059145;28;20093;-82
2023/12/31 08:38:35;;;;;;;3.25;1.35;;;8.00;99.90;;;9.06;100.00;99451.97;5048681;28;20032;-82
2023/12/31 08:41:01;;;;;;;2.70;1.30;;;7.90;99.90;;;9.06;100.00;99437.53;5064338;28;20037;-82
2023/12/31 08:43:28;;;;;;;4.50;1.55;;;8.00;99.90;;;9.02;100.00;99439.91;5081114;28;20037;-82
2023/12/31 08:45:54;;;;;;;2.80;1.40;;;8.00;99.90;;;9.24;100.00;99458.34;5038037;28;20041;-82
2023/12/31 08:48:20;;;;;;;4.80;1.40;;;8.10;99.90;;;9.21;100.00;99445.22;5068179;28;20040;-82
2023/12/31 08:50:46;;;;;;;2.42;1.27;;;8.10;99.90;;;9.18;100.00;99442.97;5051807;28;20037;-82
2023/12/31 08:53:12;;;;;;;6.40;1.58;;;8.10;99.90;;;9.08;100.00;99427.22;5067615;28;20400;-82
2023/12/31 08:55:38;;;;;;;4.70;1.35;;;8.00;99.90;;;9.20;100.00;99436.25;5053618;28;20059;-82
2023/12/31 08:58:04;;;;;;;5.28;1.42;;;8.00;99.90;;;9.21;100.00;99431.59;5072086;28;20044;-82
2023/12/31 09:00:32;;;;;;;3.65;1.50;;;8.10;99.90;;;9.29;100.00;99434.00;5052387;28;20049;-84
2023/12/31 09:02:59;;;;;;;3.30;1.60;;;8.10;99.90;;;9.26;100.00;99418.09;5050751;28;20041;-82
2023/12/31 09:05:25;;;;;;;3.50;1.70;;;8.10;99.90;;;9.21;100.00;99413.41;5052170;28;20120;-82
2023/12/31 09:07:51;;;;;;;2.67;1.38;;;8.20;99.90;;;9.21;100.00;99435.16;5061012;28;20469;-83
2023/12/31 09:10:17;;;;;;;2.83;1.33;;;8.20;99.90;;;9.09;100.00;99404.41;5053102;28;20035;-81
2023/12/31 09:12:42;;;;;;;5.70;1.58;;;8.20;99.90;;;9.08;100.00;99408.19;5064651;28;20050;-81
2023/12/31 09:15:09;;;;;;;5.40;1.42;;;8.10;99.90;;;9.16;100.00;99402.41;5062637;28;20777;-83
2023/12/31 09:17:35;;;;;;;4.72;1.17;;;8.20;99.90;;;9.14;100.00;99399.06;5057745;28;20063;-82
2023/12/31 09:20:05;;;;;;;5.60;1.42;;;8.20;99.90;;;9.19;100.00;99391.03;5063712;28;20032;-82
2023/12/31 09:22:32;;;;;;;3.13;1.35;;;8.20;99.90;;;9.20;100.00;99400.84;5056941;28;20516;-82
2023/12/31 09:24:57;;;;;;;2.03;1.20;;;8.10;99.90;;;9.28;100.00;99399.69;5064369;28;20029;-86
2023/12/31 09:27:23;;;;;;;2.67;1.45;;;8.20;99.90;;;9.44;100.00;99413.59;5057175;28;20392;-84
2023/12/31 09:29:49;;;;;;;3.25;1.60;;;8.20;99.90;;;9.44;100.00;99405.44;5058329;28;20448;-84
2023/12/31 09:32:15;;;;;;;5.63;1.75;;;8.30;99.90;;;9.47;100.00;99403.06;5049980;28;20484;-87
2023/12/31 09:34:41;;;;;;;4.40;1.38;;;8.30;99.90;;;9.45;100.00;99398.91;5069671;28;20032;-87
2023/12/31 09:37:07;;;;;;;4.70;1.80;;;8.20;99.90;;;9.42;100.00;99399.41;5067831;28;20051;-88
2023/12/31 09:39:33;;;;;;;3.90;1.30;;;8.20;99.90;;;9.37;100.00;99400.09;5056554;28;20036;-83
2023/12/31 09:42:13;;;;;;;3.10;1.50;;;8.30;99.90;;;9.37;100.00;99404.75;5055262;28;20033;-84
2023/12/31 09:44:41;;;;;;;3.78;1.50;;;8.30;99.90;;;9.33;100.00;99388.88;5061747;28;20178;-83
2023/12/31 09:47:08;;;;;;;;;;;8.30;99.90;;;9.54;100.00;99394.75;5040846;28;20033;-81
2023/12/31 09:49:36;;;;;;;4.70;1.73;;;8.30;99.90;;;9.42;100.00;99383.06;5067397;28;19916;-78
2023/12/31 09:52:04;;;;;;;3.00;1.33;;;8.30;99.90;;;9.52;100.00;99375.09;5051739;28;20491;-80
2023/12/31 09:54:39;;;;;;;4.22;2.10;;;8.30;99.90;;;9.57;100.00;99388.00;5051672;28;20036;-82
2023/12/31 09:57:06;;;;;;;3.30;1.63;;;8.30;99.90;;;9.47;100.00;99373.13;5051261;28;20036;-80
2023/12/31 09:59:32;;;;;;;4.00;1.90;;;8.30;99.90;;;9.39;100.00;99356.34;5051583;28;20120;-79
2023/12/31 10:02:04;;;;;;;5.40;1.60;;;8.30;99.90;;;9.54;100.00;99374.88;5057254;28;20306;-79
2023/12/31 10:04:31;;;;;;;2.35;1.23;;;8.30;99.90;;;9.47;100.00;99364.94;5057542;28;20041;-80
2023/12/31 10:06:57;;;;;;;5.00;1.50;;;8.40;99.90;;;9.68;100.00;99354.47;5050979;28;20052;-79
2023/12/31 10:09:31;;;;;;;5.63;1.60;;;8.50;99.90;;;9.89;100.00;99338.50;5050789;28;20083;-79
2023/12/31 10:11:57;;;;;;;2.88;1.27;;;8.70;99.90;;;10.03;100.00;99333.56;5055974;28;20115;-80
2023/12/31 10:14:25;;;;;;;3.35;1.38;;;8.90;99.90;;;10.01;100.00;99327.53;5049730;28;20036;-80
2023/12/31 10:16:51;;;;;;;3.50;1.30;;;9.00;99.90;;;10.14;100.00;99340.88;5050066;28;20104;-80
2023/12/31 10:19:16;;;;;;;3.65;1.45;;;9.00;99.90;;;10.12;100.00;99309.47;5061699;28;20111;-80
2023/12/31 10:21:43;;;;;;;2.45;1.30;;;9.00;99.90;;;9.96;100.00;99283.88;5051783;28;20091;-79